Durango, CO (81301)

3:39 PM MDT on August 27, 2015 (GMT -0600)
Falls Creek Ranch | | Change Station
CLOSE
Current Station
Personal Weather Station
Location: Durango, CO
Elevation: 7560 ft
Nearby Weather Stations

Elev 7560 ft 37.29 °N, 107.87 °W | Updated 5 minutes ago

Thunderstorm
Thunderstorm
69.3 °F
Feels Like 69.3 °F
N
1.0
Wind Variable Wind from SSE
Gusts 3.0 mph

Today
High -- | Low -- °F
--% Chance of Precip.
Yesterday
High -- | Low -- °F
Precip. -- in
6:37 AM 7:47 PM
Waxing Gibbous, 95% visible
Pressure 30.31 in
Visibility 10.0 miles
Clouds Few 12000 ft
Dew Point 57 °F
Humidity 64%
Rainfall 0.18 in
Snow Depth Not available.
UV 7 out of 12
Pollen 2.00 out of 12
Air Quality Not available.
Flu Activity Not available.
SPECI KDRO 272129Z AUTO 02003KT 10SM FEW120 21/11 A3031 RMK AO2 LTG DSNT E AND SE RAE02 TSE13 P0000 T02060111
Pressure 30.31 in
Visibility 10.0 miles
Clouds Few 12000 ft
Dew Point 57 °F
Humidity 64%
Rainfall 0.18 in
Snow Depth Not available.
UV 7 out of 12
Pollen 2.00 out of 12
Air Quality Not available.
Flu Activity Not available.
SPECI KDRO 272129Z AUTO 02003KT 10SM FEW120 21/11 A3031 RMK AO2 LTG DSNT E AND SE RAE02 TSE13 P0000 T02060111

10-Day Weather Forecast

×

Almanac

Astronomy

Aug. 27, 2015 Rise Set
Actual Time
Civil Twilight
Nautical Twilight
Astronomical Twilight
Moon
Length of Visible Light
Length of Day
Tomorrow will be .
, % of the Moon is Illuminated

Today's Extremes

State Highs State Lows

Community

WunderPhotos

Upload Photos

1,850,236 photos uploaded!

WunderBlogs® & News

Nearby

Air Quality

  Air Quality AQ Index Pollutant
Not available.

Snow Depth

Station Depth Elevation

Earthquake Activity

City Distance Mag. Time & Date
Minimum magnitude displayed is 2.5.

Coastal Water Temperatures

Place Temperature

Stations

Nearby Weather Stations

Station Location Temp. Windchill Dew Point Humidity Wind Precip. Elev Updated Type